createdAt,value
2022-10-24T00:00:10.758Z,4.82
2022-10-24T00:02:38.942Z,4.50
2022-10-24T00:05:07.963Z,4.50
2022-10-24T00:07:36.145Z,5.05
2022-10-24T00:10:05.517Z,4.72
2022-10-24T00:12:33.782Z,4.55
2022-10-24T00:15:03.323Z,4.50
2022-10-24T00:17:31.711Z,4.15
2022-10-24T00:20:00.650Z,4.20
2022-10-24T00:22:29.071Z,4.35
2022-10-24T00:24:57.260Z,3.90
2022-10-24T00:27:25.756Z,3.80
2022-10-24T00:29:54.187Z,3.75
2022-10-24T00:32:24.012Z,3.55
2022-10-24T00:34:52.201Z,3.38
2022-10-24T00:39:53.604Z,3.65
2022-10-24T00:42:21.742Z,3.00
2022-10-24T00:44:54.635Z,3.72
2022-10-24T00:47:26.784Z,3.50
2022-10-24T00:50:00.800Z,2.80
2022-10-24T00:52:32.888Z,2.80
2022-10-24T00:55:02.549Z,3.13
2022-10-24T00:57:35.593Z,2.88
2022-10-24T01:00:10.178Z,2.53
2022-10-24T01:02:40.069Z,3.05
2022-10-24T01:05:12.805Z,2.78
2022-10-24T01:07:52.323Z,3.10
2022-10-24T01:10:39.639Z,2.42
2022-10-24T01:13:21.287Z,2.72
2022-10-24T01:15:56.079Z,2.72
2022-10-24T01:18:32.404Z,2.75
2022-10-24T01:21:24.791Z,2.83
2022-10-24T01:24:33.489Z,2.60
2022-10-24T01:27:35.157Z,2.60
2022-10-24T01:30:10.269Z,2.50
2022-10-24T01:32:48.735Z,2.55
2022-10-24T01:38:10.329Z,2.38
2022-10-24T01:40:48.657Z,2.35
2022-10-24T01:43:22.208Z,2.13
2022-10-24T01:45:58.306Z,2.55
2022-10-24T01:48:28.246Z,2.03
2022-10-24T01:50:58.356Z,2.42
2022-10-24T01:53:29.250Z,2.60
2022-10-24T01:55:58.827Z,2.47
2022-10-24T01:58:27.344Z,2.50
2022-10-24T02:01:04.693Z,2.33
2022-10-24T02:03:37.988Z,2.88
2022-10-24T02:06:11.508Z,2.53
2022-10-24T02:08:46.100Z,2.30
2022-10-24T02:11:14.678Z,2.80
2022-10-24T02:13:51.623Z,2.20
2022-10-24T02:16:22.357Z,2.47
2022-10-24T02:18:53.907Z,1.80
2022-10-24T02:21:30.356Z,2.40
2022-10-24T02:24:04.321Z,2.78
2022-10-24T02:26:37.538Z,2.65
2022-10-24T02:29:11.887Z,2.30
2022-10-24T02:31:45.984Z,2.33
2022-10-24T02:34:15.585Z,2.15
2022-10-24T02:36:46.367Z,2.50
2022-10-24T02:39:15.285Z,2.30
2022-10-24T02:41:45.575Z,2.10
2022-10-24T02:44:16.951Z,2.30
2022-10-24T02:46:48.894Z,1.92
2022-10-24T02:49:17.245Z,2.10
2022-10-24T02:51:47.688Z,2.20
2022-10-24T02:54:15.991Z,1.80
2022-10-24T02:56:50.929Z,2.10
2022-10-24T02:59:19.069Z,2.33
2022-10-24T03:01:48.737Z,3.08
2022-10-24T03:04:17.056Z,2.03
2022-10-24T03:06:45.649Z,2.00
2022-10-24T03:09:13.947Z,2.20
2022-10-24T03:11:42.323Z,2.40
2022-10-24T03:14:10.688Z,1.90
2022-10-24T03:16:38.931Z,2.50
2022-10-24T03:19:08.741Z,1.52
2022-10-24T03:21:37.052Z,1.75
2022-10-24T03:24:05.924Z,1.90
2022-10-24T03:26:34.189Z,2.00
2022-10-24T03:29:02.526Z,2.15
2022-10-24T03:31:31.656Z,2.20
2022-10-24T03:34:00.214Z,2.15
2022-10-24T03:36:30.197Z,1.63
2022-10-24T03:38:58.393Z,2.25
2022-10-24T03:41:26.574Z,1.80
2022-10-24T03:43:54.713Z,2.00
2022-10-24T03:46:22.855Z,1.77
2022-10-24T03:48:51.248Z,2.15
2022-10-24T03:51:19.459Z,1.80
2022-10-24T03:53:49.028Z,2.15
2022-10-24T03:56:17.259Z,2.00
2022-10-24T03:58:45.714Z,1.90
2022-10-24T04:01:17.626Z,1.80
2022-10-24T04:03:46.040Z,1.73
2022-10-24T04:06:15.014Z,2.15
2022-10-24T04:08:43.351Z,2.03
2022-10-24T04:11:13.718Z,1.95
2022-10-24T04:13:42.200Z,2.05
2022-10-24T04:16:11.078Z,1.75
2022-10-24T04:18:39.228Z,1.88
2022-10-24T04:21:07.714Z,1.73
2022-10-24T04:23:40.911Z,2.13
2022-10-24T04:26:09.549Z,2.13
2022-10-24T04:28:39.723Z,1.77
2022-10-24T04:31:08.125Z,2.10
2022-10-24T04:33:37.112Z,1.58
2022-10-24T04:36:06.961Z,2.00
2022-10-24T04:38:35.594Z,2.10
2022-10-24T04:41:06.196Z,1.63
2022-10-24T04:43:38.054Z,2.35
2022-10-24T04:46:06.536Z,1.50
2022-10-24T04:48:35.300Z,1.67
2022-10-24T04:51:03.756Z,1.95
2022-10-24T04:53:32.366Z,1.30
2022-10-24T04:56:01.339Z,2.45
2022-10-24T04:58:29.669Z,1.85
2022-10-24T05:00:59.697Z,1.95
2022-10-24T05:03:27.933Z,1.77
2022-10-24T05:05:56.346Z,2.00
2022-10-24T05:08:24.712Z,2.00
2022-10-24T05:10:53.745Z,1.88
2022-10-24T05:13:22.361Z,1.90
2022-10-24T05:15:51.131Z,1.90
2022-10-24T05:18:21.492Z,1.60
2022-10-24T05:20:50.475Z,2.22
2022-10-24T05:23:20.997Z,2.15
2022-10-24T05:25:51.598Z,1.95
2022-10-24T05:28:20.058Z,2.17
2022-10-24T05:30:49.541Z,1.98
2022-10-24T05:33:23.541Z,2.10
2022-10-24T05:35:54.821Z,2.15
2022-10-24T05:38:23.917Z,1.90
2022-10-24T05:40:52.649Z,2.10
2022-10-24T05:43:22.118Z,2.00
2022-10-24T05:48:21.128Z,1.83
2022-10-24T05:50:50.701Z,2.72
2022-10-24T05:53:19.805Z,1.77
2022-10-24T05:55:49.454Z,1.85
2022-10-24T05:58:25.388Z,2.28
2022-10-24T06:00:54.349Z,2.13
2022-10-24T06:03:26.134Z,2.50
2022-10-24T06:05:55.316Z,2.13
2022-10-24T06:08:27.562Z,2.13
2022-10-24T06:10:55.954Z,2.15
2022-10-24T06:13:24.512Z,1.88
2022-10-24T06:15:53.028Z,2.35
2022-10-24T06:18:25.475Z,1.95
2022-10-24T06:20:56.163Z,2.28
2022-10-24T06:23:24.539Z,2.30
2022-10-24T06:25:56.580Z,1.95
2022-10-24T06:28:25.211Z,2.28
2022-10-24T06:30:55.262Z,2.10
2022-10-24T06:33:24.893Z,2.03
2022-10-24T06:35:53.176Z,1.80
2022-10-24T06:38:21.479Z,1.88
2022-10-24T06:40:52.896Z,2.40
2022-10-24T06:43:21.715Z,2.38
2022-10-24T06:45:50.852Z,2.60
2022-10-24T06:48:19.434Z,2.75
2022-10-24T06:50:49.263Z,2.60
2022-10-24T06:53:17.593Z,2.33
2022-10-24T06:55:45.785Z,2.20
2022-10-24T06:58:15.710Z,2.50
2022-10-24T07:00:51.410Z,2.67
2022-10-24T07:03:20.356Z,2.47
2022-10-24T07:05:55.949Z,2.38
2022-10-24T07:08:27.373Z,2.33
2022-10-24T07:10:55.696Z,2.83
2022-10-24T07:13:24.001Z,2.38
2022-10-24T07:15:54.804Z,2.42
2022-10-24T07:18:23.343Z,1.83
2022-10-24T07:20:54.285Z,2.58
2022-10-24T07:23:22.643Z,2.53
2022-10-24T07:25:54.662Z,2.38
2022-10-24T07:28:23.158Z,2.60
2022-10-24T07:30:51.569Z,2.10
2022-10-24T07:33:19.917Z,2.22
2022-10-24T07:35:48.109Z,2.42
2022-10-24T07:38:18.831Z,2.15
2022-10-24T07:40:48.085Z,1.92
2022-10-24T07:43:16.944Z,2.58
2022-10-24T07:45:49.029Z,2.25
2022-10-24T07:48:21.119Z,2.47
2022-10-24T07:50:51.521Z,2.30
2022-10-24T07:53:21.384Z,2.28
2022-10-24T07:55:56.311Z,2.20
2022-10-24T07:58:28.427Z,2.63
2022-10-24T08:00:57.311Z,2.45
2022-10-24T08:03:27.864Z,2.63
2022-10-24T08:05:59.705Z,2.42
2022-10-24T08:08:36.978Z,2.03
2022-10-24T08:11:09.899Z,2.45
2022-10-24T08:20:47.179Z,3.00
2022-10-24T08:23:31.579Z,2.38
2022-10-24T08:33:50.030Z,2.38
2022-10-24T08:36:52.285Z,2.35
2022-10-24T08:39:21.425Z,2.30
2022-10-24T08:42:03.223Z,2.03
2022-10-24T08:44:35.765Z,2.10
2022-10-24T08:47:15.091Z,2.70
2022-10-24T08:49:51.266Z,2.42
2022-10-24T08:52:38.700Z,2.45
2022-10-24T08:58:17.585Z,2.80
2022-10-24T09:00:50.744Z,2.17
2022-10-24T09:06:32.668Z,2.75
2022-10-24T09:09:05.164Z,1.92
2022-10-24T09:11:46.761Z,2.05
2022-10-24T09:14:19.102Z,2.13
2022-10-24T09:16:54.194Z,2.58
2022-10-24T09:19:27.712Z,2.20
2022-10-24T09:21:58.876Z,1.92
2022-10-24T09:25:19.899Z,2.08
2022-10-24T09:27:48.761Z,2.50
2022-10-24T09:30:21.879Z,2.25
2022-10-24T09:32:50.361Z,2.33
2022-10-24T09:35:22.993Z,2.30
2022-10-24T09:37:55.513Z,2.20
2022-10-24T09:40:26.631Z,2.20
2022-10-24T09:43:00.565Z,2.30
2022-10-24T09:45:45.295Z,2.17
2022-10-24T09:48:29.278Z,2.22
2022-10-24T09:51:00.055Z,2.33
2022-10-24T09:53:35.090Z,2.22
2022-10-24T09:56:16.914Z,2.83
2022-10-24T09:58:49.534Z,2.10
2022-10-24T10:01:32.923Z,1.90
2022-10-24T10:04:25.918Z,1.80
2022-10-24T10:09:58.856Z,1.83
2022-10-24T10:12:53.600Z,2.22
2022-10-24T10:19:26.437Z,1.90
2022-10-24T10:21:58.045Z,2.35
2022-10-24T10:24:29.603Z,1.73
2022-10-24T10:26:57.977Z,1.80
2022-10-24T10:29:26.270Z,1.67
2022-10-24T10:32:03.808Z,1.92
2022-10-24T10:34:39.206Z,1.95
2022-10-24T10:37:27.214Z,2.20
2022-10-24T10:40:22.461Z,2.50
2022-10-24T10:43:07.238Z,2.15
2022-10-24T10:45:40.531Z,2.15
2022-10-24T10:48:42.342Z,2.70
2022-10-24T10:51:20.053Z,2.70
2022-10-24T10:54:00.237Z,2.88
2022-10-24T10:56:38.134Z,2.42
2022-10-24T11:03:24.672Z,2.88
2022-10-24T11:06:08.145Z,2.30
2022-10-24T11:09:09.719Z,2.63
2022-10-24T11:11:40.211Z,2.42
2022-10-24T11:14:19.295Z,2.63
2022-10-24T11:16:48.198Z,2.35
2022-10-24T11:19:27.267Z,2.60
2022-10-24T11:21:59.277Z,2.70
2022-10-24T11:24:30.246Z,2.17
2022-10-24T11:27:04.962Z,2.50
2022-10-24T11:29:39.536Z,2.22
2022-10-24T11:32:18.019Z,2.60
2022-10-24T11:34:52.676Z,3.05
2022-10-24T11:37:26.084Z,2.50
2022-10-24T11:40:00.586Z,2.80
2022-10-24T11:42:36.457Z,2.55
2022-10-24T11:45:12.171Z,3.08
2022-10-24T11:47:51.627Z,2.20
2022-10-24T11:50:28.876Z,1.73
2022-10-24T11:53:06.183Z,1.98
2022-10-24T11:55:40.557Z,2.22
2022-10-24T11:58:15.755Z,2.25
2022-10-24T12:01:14.133Z,2.33
2022-10-24T12:04:16.393Z,2.50
2022-10-24T12:07:16.406Z,2.08
2022-10-24T12:10:15.639Z,2.13
2022-10-24T12:13:08.508Z,2.38
2022-10-24T12:15:49.135Z,2.30
2022-10-24T12:18:30.824Z,2.08
2022-10-24T12:21:04.908Z,2.83
2022-10-24T12:23:33.591Z,2.30
2022-10-24T12:26:18.463Z,2.47
2022-10-24T12:28:57.666Z,2.63
2022-10-24T12:31:30.350Z,2.40
2022-10-24T12:34:48.801Z,3.10
2022-10-24T12:37:37.071Z,2.22
2022-10-24T12:41:05.771Z,1.95
2022-10-24T12:43:36.626Z,2.72
2022-10-24T12:46:55.178Z,2.38
2022-10-24T12:49:29.259Z,2.75
2022-10-24T12:51:57.924Z,2.50
2022-10-24T12:54:44.402Z,2.10
2022-10-24T12:57:29.165Z,3.03
2022-10-24T12:59:59.953Z,2.10
2022-10-24T13:02:58.299Z,2.45
2022-10-24T13:05:53.129Z,2.42
2022-10-24T13:08:41.013Z,2.55
2022-10-24T13:11:28.803Z,2.92
2022-10-24T13:14:43.476Z,2.15
2022-10-24T13:17:21.574Z,2.38
2022-10-24T13:20:07.989Z,2.53
2022-10-24T13:22:38.292Z,2.50
2022-10-24T13:25:35.886Z,2.70
2022-10-24T13:28:40.757Z,2.50
2022-10-24T13:31:45.458Z,2.00
2022-10-24T13:34:27.596Z,2.38
2022-10-24T13:37:05.350Z,2.72
2022-10-24T13:39:41.319Z,2.42
2022-10-24T13:42:26.714Z,2.53
2022-10-24T13:45:00.536Z,2.72
2022-10-24T13:47:35.397Z,2.47
2022-10-24T13:50:11.835Z,2.63
2022-10-24T13:52:49.622Z,2.72
2022-10-24T13:55:27.086Z,2.35
2022-10-24T13:58:00.852Z,2.25
2022-10-24T14:00:33.109Z,2.65
2022-10-24T14:03:04.789Z,2.53
2022-10-24T14:05:42.093Z,2.40
2022-10-24T14:08:23.902Z,2.58
2022-10-24T14:10:55.788Z,2.08
2022-10-24T14:13:27.417Z,3.20
2022-10-24T14:19:15.435Z,2.70
2022-10-24T14:21:46.949Z,2.17
2022-10-24T14:24:43.449Z,2.22
2022-10-24T14:27:16.540Z,2.45
2022-10-24T14:30:07.330Z,2.45
2022-10-24T14:32:40.972Z,2.13
2022-10-24T14:35:14.884Z,1.58
2022-10-24T14:37:46.171Z,2.05
2022-10-24T14:40:19.327Z,1.80
2022-10-24T14:42:54.673Z,1.92
2022-10-24T14:48:46.473Z,2.08
2022-10-24T14:51:28.014Z,1.90
2022-10-24T14:54:10.182Z,2.40
2022-10-24T14:56:59.041Z,2.13
2022-10-24T14:59:35.472Z,2.35
2022-10-24T15:02:08.783Z,2.25
2022-10-24T15:04:41.237Z,2.45
2022-10-24T15:07:31.457Z,2.58
2022-10-24T15:10:02.089Z,2.83
2022-10-24T15:12:40.929Z,2.70
2022-10-24T15:15:33.147Z,3.03
2022-10-24T15:18:30.926Z,2.67
2022-10-24T15:24:44.374Z,2.47
2022-10-24T15:27:15.593Z,2.47
2022-10-24T15:29:46.456Z,2.58
2022-10-24T15:32:32.467Z,3.00
2022-10-24T15:35:22.915Z,2.58
2022-10-24T15:38:05.758Z,2.92
2022-10-24T15:40:49.521Z,2.80
2022-10-24T15:43:23.257Z,2.80
2022-10-24T15:45:57.779Z,3.20
2022-10-24T15:51:50.216Z,2.63
2022-10-24T15:55:33.867Z,3.20
2022-10-24T15:58:22.575Z,3.55
2022-10-24T16:01:01.180Z,3.22
2022-10-24T16:03:29.651Z,3.08
2022-10-24T16:05:59.549Z,3.22
2022-10-24T16:08:27.881Z,3.00
2022-10-24T16:10:56.037Z,3.33
2022-10-24T16:13:24.834Z,3.28
2022-10-24T16:15:54.683Z,2.92
2022-10-24T16:18:23.591Z,3.53
2022-10-24T16:20:51.862Z,2.80
2022-10-24T16:23:20.307Z,3.05
2022-10-24T16:25:48.922Z,3.67
2022-10-24T16:28:30.092Z,3.45
2022-10-24T16:31:36.887Z,3.38
2022-10-24T16:34:07.324Z,3.53
2022-10-24T16:36:35.642Z,3.90
2022-10-24T16:39:05.183Z,3.70
2022-10-24T16:41:33.471Z,4.35
2022-10-24T16:44:02.422Z,3.33
2022-10-24T16:46:32.071Z,3.70
2022-10-24T16:49:00.267Z,3.25
2022-10-24T16:51:32.335Z,3.50
2022-10-24T16:54:02.099Z,3.80
2022-10-24T16:56:30.945Z,3.47
2022-10-24T16:58:59.236Z,3.50
2022-10-24T17:01:27.931Z,3.38
2022-10-24T17:03:57.846Z,4.10
2022-10-24T17:06:28.209Z,3.50
2022-10-24T17:08:56.366Z,4.28
2022-10-24T17:14:14.012Z,4.10
2022-10-24T17:16:44.015Z,4.40
2022-10-24T17:19:17.229Z,4.63
2022-10-24T17:21:48.453Z,3.95
2022-10-24T17:24:20.554Z,4.00
2022-10-24T17:26:50.879Z,4.22
2022-10-24T17:29:26.599Z,4.43
2022-10-24T17:31:58.552Z,4.05
2022-10-24T17:34:29.435Z,4.40
2022-10-24T17:37:04.979Z,4.47
2022-10-24T17:39:41.633Z,4.07
2022-10-24T17:42:13.228Z,3.72
2022-10-24T17:44:42.294Z,4.55
2022-10-24T17:47:11.255Z,4.57
2022-10-24T17:49:45.698Z,4.22
2022-10-24T17:52:20.990Z,5.00
2022-10-24T17:54:49.522Z,4.57
2022-10-24T17:57:17.688Z,4.50
2022-10-24T17:59:46.490Z,4.35
2022-10-24T18:02:15.410Z,5.35
2022-10-24T18:04:45.465Z,5.38
2022-10-24T18:07:14.042Z,4.70
2022-10-24T18:09:42.554Z,4.95
2022-10-24T18:12:10.688Z,5.53
2022-10-24T18:14:39.066Z,4.78
2022-10-24T18:17:07.236Z,4.10
2022-10-24T18:19:35.445Z,4.30
2022-10-24T18:22:05.547Z,4.50
2022-10-24T18:24:33.710Z,3.80
2022-10-24T18:27:01.975Z,3.33
2022-10-24T18:29:30.163Z,3.28
2022-10-24T18:31:58.851Z,3.55
2022-10-24T18:34:27.156Z,3.65
2022-10-24T18:36:55.771Z,4.03
2022-10-24T18:39:27.788Z,3.97
2022-10-24T18:42:06.533Z,3.60
2022-10-24T18:44:37.853Z,3.50
2022-10-24T18:47:09.260Z,3.75
2022-10-24T18:49:38.581Z,4.07
2022-10-24T18:52:18.707Z,4.40
2022-10-24T18:55:04.016Z,4.13
2022-10-24T18:57:34.510Z,3.70
2022-10-24T19:00:03.031Z,3.78
2022-10-24T19:02:37.011Z,4.55
2022-10-24T19:05:21.017Z,3.42
2022-10-24T19:07:50.915Z,3.45
2022-10-24T19:10:26.126Z,3.80
2022-10-24T19:12:57.366Z,3.20
2022-10-24T19:15:26.938Z,3.10
2022-10-24T19:17:55.155Z,3.17
2022-10-24T19:20:25.114Z,3.58
2022-10-24T19:22:53.685Z,3.88
2022-10-24T19:25:23.215Z,3.65
2022-10-24T19:30:24.998Z,2.95
2022-10-24T19:32:53.116Z,3.05
2022-10-24T19:35:21.253Z,3.50
2022-10-24T19:37:49.712Z,2.78
2022-10-24T19:40:20.521Z,3.08
2022-10-24T19:42:58.413Z,3.03
2022-10-24T19:45:28.853Z,3.05
2022-10-24T19:48:01.399Z,3.33
2022-10-24T19:50:30.551Z,3.13
2022-10-24T19:52:58.707Z,3.75
2022-10-24T19:55:27.222Z,3.55
2022-10-24T19:57:56.716Z,3.85
2022-10-24T20:00:26.610Z,3.28
2022-10-24T20:02:54.826Z,3.83
2022-10-24T20:05:23.078Z,3.65
2022-10-24T20:07:53.689Z,3.47
2022-10-24T20:12:58.316Z,2.90
2022-10-24T20:15:26.506Z,3.00
2022-10-24T20:17:54.660Z,2.92
2022-10-24T20:20:23.977Z,2.40
2022-10-24T20:22:52.296Z,2.42
2022-10-24T20:25:33.212Z,2.90
2022-10-24T20:28:03.202Z,2.92
2022-10-24T20:30:31.291Z,2.78
2022-10-24T20:33:00.942Z,2.88
2022-10-24T20:35:29.100Z,3.55
2022-10-24T20:37:57.263Z,3.03
2022-10-24T20:40:25.471Z,3.33
2022-10-24T20:42:53.702Z,3.10
2022-10-24T20:45:23.386Z,3.13
2022-10-24T20:47:53.481Z,3.45
2022-10-24T20:50:21.579Z,3.20
2022-10-24T20:52:49.932Z,2.97
2022-10-24T20:55:31.890Z,3.70
2022-10-24T20:58:07.008Z,3.45
2022-10-24T21:00:36.739Z,3.15
2022-10-24T21:03:05.132Z,3.25
2022-10-24T21:05:35.642Z,4.15
2022-10-24T21:08:04.473Z,4.10
2022-10-24T21:10:32.693Z,3.85
2022-10-24T21:13:00.920Z,4.22
2022-10-24T21:15:29.106Z,4.90
2022-10-24T21:17:58.671Z,4.57
2022-10-24T21:20:26.915Z,5.00
2022-10-24T21:22:55.032Z,4.80
2022-10-24T21:25:23.199Z,4.70
2022-10-24T21:27:51.878Z,4.47
2022-10-24T21:30:20.085Z,4.88
2022-10-24T21:32:48.712Z,4.82
2022-10-24T21:35:18.389Z,4.15
2022-10-24T21:37:46.923Z,4.10
2022-10-24T21:40:18.184Z,4.15
2022-10-24T21:42:50.987Z,4.50
2022-10-24T21:45:19.103Z,4.03
2022-10-24T21:47:47.373Z,5.05
2022-10-24T21:50:17.145Z,3.92
2022-10-24T21:52:45.575Z,3.67
2022-10-24T21:55:14.008Z,4.05
2022-10-24T21:57:42.306Z,3.95
2022-10-24T22:00:12.929Z,3.85
2022-10-24T22:02:41.334Z,3.60
2022-10-24T22:05:10.147Z,3.28
2022-10-24T22:07:39.816Z,3.40
2022-10-24T22:10:10.125Z,4.13
2022-10-24T22:12:38.345Z,3.20
2022-10-24T22:15:07.944Z,3.47
2022-10-24T22:17:36.290Z,3.67
2022-10-24T22:20:05.052Z,3.50
2022-10-24T22:22:33.228Z,3.45
2022-10-24T22:25:02.802Z,3.60
2022-10-24T22:27:30.998Z,3.90
2022-10-24T22:29:59.124Z,4.13
2022-10-24T22:35:01.802Z,4.15
2022-10-24T22:37:33.725Z,4.90
2022-10-24T22:40:04.478Z,4.88
2022-10-24T22:42:33.222Z,4.90
2022-10-24T22:45:02.517Z,5.20
2022-10-24T22:47:50.947Z,5.03
2022-10-24T22:50:44.309Z,5.65
2022-10-24T22:53:16.285Z,5.03
2022-10-24T22:56:11.694Z,5.25
2022-10-24T22:58:42.723Z,5.43
2022-10-24T23:01:37.680Z,4.53
2022-10-24T23:04:22.303Z,4.88
2022-10-24T23:06:57.318Z,5.40
2022-10-24T23:09:25.799Z,5.05
2022-10-24T23:11:56.686Z,5.32
2022-10-24T23:18:32.906Z,6.15
2022-10-24T23:21:12.058Z,6.18
2022-10-24T23:23:40.904Z,5.72
2022-10-24T23:26:33.527Z,6.07
2022-10-24T23:29:10.465Z,6.38
2022-10-24T23:31:39.683Z,6.53
2022-10-24T23:34:10.155Z,6.25
2022-10-24T23:36:39.286Z,6.30
2022-10-24T23:39:10.215Z,6.28
2022-10-24T23:41:39.278Z,6.43
2022-10-24T23:44:10.887Z,5.32
2022-10-24T23:46:42.237Z,5.30
2022-10-24T23:49:24.531Z,5.72
2022-10-24T23:52:03.920Z,5.13
2022-10-24T23:54:34.493Z,4.82
2022-10-24T23:57:03.587Z,4.20
